This is the latest recevied weather packets stored in our database for station/object VR2OT-10. If no packets are shown the sender has not sent any weather packets the latest 10 day(s).
| Time | Temp. | Humidity | Pressure | Rain* | Wind** | Luminosity | Snow |
|---|---|---|---|---|---|---|---|
| 1777801638 | - | 92% | 1011 hPa | - | 2.68 m/s, 135° | - | - |
| 1777800739 | - | 93% | 1011 hPa | - | 2.68 m/s, 135° | - | - |
| 1777798939 | - | 93% | 1010.1 hPa | - | 0.89 m/s, 135° | - | - |
| 1777798038 | - | 91% | 1010.5 hPa | - | 1.34 m/s, 180° | - | - |
| 1777797137 | - | 93% | 1009.8 hPa | - | 0 m/s | - | - |
| 1777796238 | - | 92% | 1009.8 hPa | - | 1.34 m/s, 135° | - | - |
| 1777795338 | - | 92% | 1010.2 hPa | - | 1.79 m/s, 135° | - | - |
| 1777793539 | - | 93% | 1010.3 hPa | - | 2.24 m/s, 0° | - | - |
| 1777792638 | 19.44° C | 91% | 1010.6 hPa | - | 4.47 m/s, 270° | - | - |
| 1777791738 | 22.78° C | 88% | 1009.3 hPa | - | 2.24 m/s, 90° | - | - |
| 1777790837 | 22.78° C | 87% | 1010.1 hPa | - | 1.79 m/s, 135° | - | - |
| 1777789037 | 24.44° C | 87% | 1010.8 hPa | - | 3.13 m/s, 315° | - | - |
| 1777788139 | 25.56° C | 70% | 1010.1 hPa | - | 3.13 m/s, 45° | - | - |
| 1777787238 | 26.67° C | 71% | 1009.7 hPa | - | 4.47 m/s, 0° | - | - |
| 1777786338 | 28.89° C | 74% | 1010.2 hPa | - | 3.13 m/s, 270° | - | - |
| 1777785438 | 28.33° C | 74% | 1010.3 hPa | - | 1.34 m/s, 225° | - | - |
| 1777784539 | 28.33° C | 73% | 1010.7 hPa | - | 1.34 m/s, 225° | - | - |
| 1777782739 | 28.89° C | 71% | 1011.1 hPa | - | 0.45 m/s, 270° | - | - |
| 1777781838 | 29.44° C | 73% | 1011.2 hPa | - | 1.34 m/s, 270° | - | - |
| 1777780937 | 28.89° C | 74% | 1011.2 hPa | - | 1.34 m/s, 225° | - | - |
| 1777780037 | 28.89° C | 73% | 1011.6 hPa | - | 1.34 m/s, 225° | - | - |
| 1777779138 | 27.78° C | 74% | 1011.7 hPa | - | 1.34 m/s, 270° | - | - |
| 1777777339 | 27.78° C | 78% | 1012 hPa | - | 1.34 m/s, 270° | - | - |
| 1777776438 | 28.33° C | 78% | 1012.1 hPa | - | 1.34 m/s, 315° | - | - |
| 1777775538 | 27.78° C | 79% | 1012.3 hPa | - | 1.79 m/s, 0° | - | - |
* Rain since midnight (hover to see other rain measurements)
** Current wind speed in m/s (hover to see current wind gust speed)